TFM - Tactical Decision Aid (Experimental) INFO Settings
ID: Runway Winds: CIG/VIS Threshold: METAR Board: Map:

KAGS - Augusta Rgnl

Updated at: 0027 UTC 11 Dec 2017
Latest TAF at: 2320 UTC 10 Dec 2017

TAF Board

Time2353Z11/01Z11/02Z11/03Z11/04Z11/05Z11/06Z11/07Z11/08Z11/09Z11/10Z11/11Z11/12Z11/13Z
TypeOBSPRVLPRVLPRVLPRVLPRVLPRVLPRVLPRVLPRVLPRVLPRVLPRVLPRVL
VIS10>6>6>6>6>6>6>6>6>6>6>6>6>6
CIG----------------------------
CoverCLRSKCSKCSKCSKCSKCSKCSKCSKCSKCSKCSKCSKCSKC
FltCatVFRVFRVFRVFRVFRVFRVFRVFRVFRVFRVFRVFRVFRVFR
WX----------------------------
WDir230250250250250250250250250250250250250250
WSpd45555555555555
WGst----------------------------
TAF
KAGS 102320Z 1100/1124 25005KT P6SM SKC
  FM111500 25008KT P6SM SKC


METAR
KAGS 102353Z 23004KT 10SM CLR 02/M01 A3022 RMK AO2 SLP235 T00221011 10106 20022 53011

TAF/METAR Board Legend

Potential Impact
  None Marginal Slight Moderate High
Visibility (sm) >5 3≤X≤5 2≤X<3 0.5≤X<2 <0.5
Ceiling (100 ft) >30 10≤X≤30 7≤X<10 2≤X<7 <2
Wind Speed (kt) <10 10≤X<20 20≤X<30 ≥30
Wind Gust (kt) <15 15≤X<25 25≤X<35 ≥35
Weather No Wx Reported VCTS -TS,-FZRA TS,FZRA +TS,+FZRA